sensor_id;sensor_type;location;lat;lon;timestamp;P1;durP1;ratioP1;P2;durP2;ratioP2
24813;SDS011;12904;50.088;11.414;2023-05-10T00:00:11;4.43;;;3.28;;
24813;SDS011;12904;50.088;11.414;2023-05-10T00:02:37;3.83;;;3.40;;
24813;SDS011;12904;50.088;11.414;2023-05-10T00:05:03;3.67;;;3.38;;
24813;SDS011;12904;50.088;11.414;2023-05-10T00:07:30;4.57;;;3.55;;
24813;SDS011;12904;50.088;11.414;2023-05-10T00:09:55;4.05;;;3.65;;
24813;SDS011;12904;50.088;11.414;2023-05-10T00:12:21;7.20;;;3.65;;
24813;SDS011;12904;50.088;11.414;2023-05-10T00:14:47;5.15;;;2.92;;
24813;SDS011;12904;50.088;11.414;2023-05-10T00:17:12;3.65;;;3.22;;
24813;SDS011;12904;50.088;11.414;2023-05-10T00:19:38;6.07;;;3.47;;
24813;SDS011;12904;50.088;11.414;2023-05-10T00:22:04;8.85;;;3.47;;
24813;SDS011;12904;50.088;11.414;2023-05-10T00:24:29;3.80;;;3.45;;
24813;SDS011;12904;50.088;11.414;2023-05-10T00:26:55;4.40;;;3.13;;
24813;SDS011;12904;50.088;11.414;2023-05-10T00:29:20;3.85;;;3.45;;
24813;SDS011;12904;50.088;11.414;2023-05-10T00:31:46;8.30;;;4.07;;
24813;SDS011;12904;50.088;11.414;2023-05-10T00:34:12;5.78;;;3.30;;
24813;SDS011;12904;50.088;11.414;2023-05-10T00:36:37;4.13;;;3.28;;
24813;SDS011;12904;50.088;11.414;2023-05-10T00:39:03;4.38;;;3.63;;
24813;SDS011;12904;50.088;11.414;2023-05-10T00:41:29;4.20;;;3.80;;
24813;SDS011;12904;50.088;11.414;2023-05-10T00:43:57;3.00;;;2.70;;
24813;SDS011;12904;50.088;11.414;2023-05-10T00:46:23;4.18;;;3.28;;
24813;SDS011;12904;50.088;11.414;2023-05-10T00:48:49;6.53;;;3.78;;
24813;SDS011;12904;50.088;11.414;2023-05-10T00:51:15;3.67;;;3.20;;
24813;SDS011;12904;50.088;11.414;2023-05-10T00:53:41;4.43;;;3.50;;
24813;SDS011;12904;50.088;11.414;2023-05-10T00:56:07;3.30;;;3.00;;
24813;SDS011;12904;50.088;11.414;2023-05-10T00:58:33;4.25;;;3.83;;
24813;SDS011;12904;50.088;11.414;2023-05-10T01:00:59;4.18;;;3.78;;
24813;SDS011;12904;50.088;11.414;2023-05-10T01:03:25;3.72;;;3.20;;
24813;SDS011;12904;50.088;11.414;2023-05-10T01:05:51;3.20;;;2.90;;
24813;SDS011;12904;50.088;11.414;2023-05-10T01:08:17;4.97;;;3.83;;
24813;SDS011;12904;50.088;11.414;2023-05-10T01:10:43;4.85;;;3.80;;
24813;SDS011;12904;50.088;11.414;2023-05-10T01:13:09;8.02;;;3.33;;
24813;SDS011;12904;50.088;11.414;2023-05-10T01:15:35;8.73;;;3.88;;
24813;SDS011;12904;50.088;11.414;2023-05-10T01:18:01;3.50;;;3.17;;
24813;SDS011;12904;50.088;11.414;2023-05-10T01:20:28;4.90;;;3.60;;
24813;SDS011;12904;50.088;11.414;2023-05-10T01:25:35;3.85;;;3.55;;
24813;SDS011;12904;50.088;11.414;2023-05-10T01:31:22;4.68;;;3.47;;
24813;SDS011;12904;50.088;11.414;2023-05-10T01:34:02;3.47;;;3.17;;
24813;SDS011;12904;50.088;11.414;2023-05-10T01:36:35;3.85;;;3.50;;
24813;SDS011;12904;50.088;11.414;2023-05-10T01:41:56;4.10;;;3.80;;
24813;SDS011;12904;50.088;11.414;2023-05-10T01:49:32;5.03;;;3.58;;
24813;SDS011;12904;50.088;11.414;2023-05-10T01:52:12;8.95;;;3.53;;
24813;SDS011;12904;50.088;11.414;2023-05-10T01:54:41;3.72;;;3.42;;
24813;SDS011;12904;50.088;11.414;2023-05-10T01:57:12;3.47;;;3.17;;
24813;SDS011;12904;50.088;11.414;2023-05-10T01:59:40;4.22;;;2.85;;
24813;SDS011;12904;50.088;11.414;2023-05-10T02:02:10;5.28;;;3.38;;
24813;SDS011;12904;50.088;11.414;2023-05-10T02:04:37;3.50;;;3.20;;
24813;SDS011;12904;50.088;11.414;2023-05-10T02:07:05;4.90;;;3.55;;
24813;SDS011;12904;50.088;11.414;2023-05-10T02:09:33;5.07;;;3.50;;
24813;SDS011;12904;50.088;11.414;2023-05-10T02:12:01;4.68;;;3.38;;
24813;SDS011;12904;50.088;11.414;2023-05-10T02:14:32;3.95;;;3.65;;
24813;SDS011;12904;50.088;11.414;2023-05-10T02:17:02;4.43;;;3.75;;
24813;SDS011;12904;50.088;11.414;2023-05-10T02:19:30;5.30;;;3.92;;
24813;SDS011;12904;50.088;11.414;2023-05-10T02:21:58;3.92;;;3.63;;
24813;SDS011;12904;50.088;11.414;2023-05-10T02:24:25;4.68;;;3.53;;
24813;SDS011;12904;50.088;11.414;2023-05-10T02:26:53;5.22;;;3.67;;
24813;SDS011;12904;50.088;11.414;2023-05-10T02:29:20;4.82;;;3.25;;
24813;SDS011;12904;50.088;11.414;2023-05-10T02:31:52;5.35;;;3.35;;
24813;SDS011;12904;50.088;11.414;2023-05-10T02:34:20;4.35;;;3.40;;
24813;SDS011;12904;50.088;11.414;2023-05-10T02:36:47;5.88;;;3.45;;
24813;SDS011;12904;50.088;11.414;2023-05-10T02:39:13;10.85;;;3.75;;
24813;SDS011;12904;50.088;11.414;2023-05-10T02:41:40;8.23;;;3.97;;
24813;SDS011;12904;50.088;11.414;2023-05-10T02:44:07;4.32;;;3.72;;
24813;SDS011;12904;50.088;11.414;2023-05-10T02:46:34;4.43;;;3.63;;
24813;SDS011;12904;50.088;11.414;2023-05-10T02:49:01;3.78;;;3.45;;
24813;SDS011;12904;50.088;11.414;2023-05-10T02:51:28;8.15;;;3.80;;
24813;SDS011;12904;50.088;11.414;2023-05-10T02:53:57;3.63;;;2.90;;
24813;SDS011;12904;50.088;11.414;2023-05-10T02:56:25;4.80;;;3.17;;
24813;SDS011;12904;50.088;11.414;2023-05-10T02:58:54;4.03;;;3.63;;
24813;SDS011;12904;50.088;11.414;2023-05-10T03:01:20;5.82;;;3.90;;
24813;SDS011;12904;50.088;11.414;2023-05-10T03:03:46;6.05;;;3.33;;
24813;SDS011;12904;50.088;11.414;2023-05-10T03:06:11;4.82;;;3.28;;
24813;SDS011;12904;50.088;11.414;2023-05-10T03:08:37;5.28;;;3.97;;
24813;SDS011;12904;50.088;11.414;2023-05-10T03:11:10;4.57;;;3.67;;
24813;SDS011;12904;50.088;11.414;2023-05-10T03:13:54;4.30;;;3.85;;
24813;SDS011;12904;50.088;11.414;2023-05-10T03:16:46;6.20;;;3.67;;
24813;SDS011;12904;50.088;11.414;2023-05-10T03:19:18;7.38;;;3.63;;
24813;SDS011;12904;50.088;11.414;2023-05-10T03:21:52;4.20;;;3.80;;
24813;SDS011;12904;50.088;11.414;2023-05-10T03:24:20;5.15;;;3.80;;
24813;SDS011;12904;50.088;11.414;2023-05-10T03:26:48;7.13;;;4.05;;
24813;SDS011;12904;50.088;11.414;2023-05-10T03:29:15;10.05;;;4.22;;
24813;SDS011;12904;50.088;11.414;2023-05-10T03:31:42;5.20;;;3.40;;
24813;SDS011;12904;50.088;11.414;2023-05-10T03:34:08;5.28;;;4.78;;
24813;SDS011;12904;50.088;11.414;2023-05-10T03:36:33;6.35;;;4.82;;
24813;SDS011;12904;50.088;11.414;2023-05-10T03:38:59;5.25;;;3.78;;
24813;SDS011;12904;50.088;11.414;2023-05-10T03:41:25;5.47;;;4.10;;
24813;SDS011;12904;50.088;11.414;2023-05-10T03:43:51;5.18;;;4.75;;
24813;SDS011;12904;50.088;11.414;2023-05-10T03:46:16;5.00;;;4.53;;
24813;SDS011;12904;50.088;11.414;2023-05-10T03:48:42;7.45;;;5.13;;
24813;SDS011;12904;50.088;11.414;2023-05-10T03:51:08;8.30;;;5.07;;
24813;SDS011;12904;50.088;11.414;2023-05-10T03:53:33;7.93;;;5.10;;
24813;SDS011;12904;50.088;11.414;2023-05-10T03:55:59;8.10;;;4.70;;
24813;SDS011;12904;50.088;11.414;2023-05-10T03:58:25;5.25;;;4.85;;
24813;SDS011;12904;50.088;11.414;2023-05-10T04:00:51;10.23;;;5.03;;
24813;SDS011;12904;50.088;11.414;2023-05-10T04:03:17;5.82;;;5.03;;
24813;SDS011;12904;50.088;11.414;2023-05-10T04:05:43;7.15;;;5.28;;
24813;SDS011;12904;50.088;11.414;2023-05-10T04:08:08;6.32;;;5.25;;
24813;SDS011;12904;50.088;11.414;2023-05-10T04:10:34;5.57;;;5.07;;
24813;SDS011;12904;50.088;11.414;2023-05-10T04:13:00;5.43;;;4.93;;
24813;SDS011;12904;50.088;11.414;2023-05-10T04:15:25;4.95;;;4.10;;
24813;SDS011;12904;50.088;11.414;2023-05-10T04:17:51;5.85;;;4.75;;
24813;SDS011;12904;50.088;11.414;2023-05-10T04:20:17;10.75;;;5.68;;
24813;SDS011;12904;50.088;11.414;2023-05-10T04:22:42;9.20;;;6.47;;
24813;SDS011;12904;50.088;11.414;2023-05-10T04:25:08;12.30;;;5.95;;
24813;SDS011;12904;50.088;11.414;2023-05-10T04:27:34;8.05;;;6.65;;
24813;SDS011;12904;50.088;11.414;2023-05-10T04:30:00;8.52;;;7.82;;
24813;SDS011;12904;50.088;11.414;2023-05-10T04:32:25;8.65;;;7.75;;
24813;SDS011;12904;50.088;11.414;2023-05-10T04:34:51;9.63;;;7.28;;
24813;SDS011;12904;50.088;11.414;2023-05-10T04:37:17;7.57;;;6.97;;
24813;SDS011;12904;50.088;11.414;2023-05-10T04:39:43;8.00;;;7.20;;
24813;SDS011;12904;50.088;11.414;2023-05-10T04:42:08;9.45;;;8.07;;
24813;SDS011;12904;50.088;11.414;2023-05-10T04:44:34;10.52;;;8.30;;
24813;SDS011;12904;50.088;11.414;2023-05-10T04:47:00;9.27;;;8.40;;
24813;SDS011;12904;50.088;11.414;2023-05-10T04:49:27;7.95;;;7.28;;
24813;SDS011;12904;50.088;11.414;2023-05-10T04:51:53;8.57;;;7.70;;
24813;SDS011;12904;50.088;11.414;2023-05-10T04:54:19;11.82;;;7.00;;
24813;SDS011;12904;50.088;11.414;2023-05-10T04:56:44;8.85;;;8.05;;
24813;SDS011;12904;50.088;11.414;2023-05-10T04:59:10;8.68;;;7.95;;
24813;SDS011;12904;50.088;11.414;2023-05-10T05:01:36;13.68;;;9.02;;
24813;SDS011;12904;50.088;11.414;2023-05-10T05:04:01;11.73;;;9.93;;
24813;SDS011;12904;50.088;11.414;2023-05-10T05:06:27;13.45;;;9.50;;
24813;SDS011;12904;50.088;11.414;2023-05-10T05:08:53;10.85;;;9.85;;
24813;SDS011;12904;50.088;11.414;2023-05-10T05:11:18;10.90;;;9.82;;
24813;SDS011;12904;50.088;11.414;2023-05-10T05:13:44;9.35;;;8.55;;
24813;SDS011;12904;50.088;11.414;2023-05-10T05:16:10;10.73;;;9.73;;
24813;SDS011;12904;50.088;11.414;2023-05-10T05:18:36;9.65;;;8.75;;
24813;SDS011;12904;50.088;11.414;2023-05-10T05:21:02;9.68;;;8.77;;
24813;SDS011;12904;50.088;11.414;2023-05-10T05:23:27;11.35;;;10.27;;
24813;SDS011;12904;50.088;11.414;2023-05-10T05:25:53;12.55;;;9.73;;
24813;SDS011;12904;50.088;11.414;2023-05-10T05:28:19;10.75;;;9.77;;
24813;SDS011;12904;50.088;11.414;2023-05-10T05:30:45;10.95;;;9.95;;
24813;SDS011;12904;50.088;11.414;2023-05-10T05:33:12;12.65;;;11.25;;
24813;SDS011;12904;50.088;11.414;2023-05-10T05:35:39;12.00;;;10.80;;
24813;SDS011;12904;50.088;11.414;2023-05-10T05:38:04;12.35;;;10.60;;
24813;SDS011;12904;50.088;11.414;2023-05-10T05:40:31;12.20;;;10.88;;
24813;SDS011;12904;50.088;11.414;2023-05-10T05:42:56;13.85;;;12.45;;
24813;SDS011;12904;50.088;11.414;2023-05-10T05:45:22;13.95;;;12.32;;
24813;SDS011;12904;50.088;11.414;2023-05-10T05:47:47;12.88;;;11.25;;
24813;SDS011;12904;50.088;11.414;2023-05-10T05:50:13;12.57;;;11.40;;
24813;SDS011;12904;50.088;11.414;2023-05-10T05:52:39;13.88;;;12.55;;
24813;SDS011;12904;50.088;11.414;2023-05-10T05:55:05;14.95;;;12.98;;
24813;SDS011;12904;50.088;11.414;2023-05-10T05:57:30;13.48;;;12.18;;
24813;SDS011;12904;50.088;11.414;2023-05-10T05:59:56;14.75;;;12.30;;
24813;SDS011;12904;50.088;11.414;2023-05-10T06:02:22;14.20;;;13.00;;
24813;SDS011;12904;50.088;11.414;2023-05-10T06:04:47;15.23;;;13.70;;
24813;SDS011;12904;50.088;11.414;2023-05-10T06:07:13;21.05;;;13.85;;
24813;SDS011;12904;50.088;11.414;2023-05-10T06:09:39;23.33;;;16.23;;
24813;SDS011;12904;50.088;11.414;2023-05-10T06:12:04;15.52;;;13.52;;
24813;SDS011;12904;50.088;11.414;2023-05-10T06:14:30;16.63;;;13.23;;
24813;SDS011;12904;50.088;11.414;2023-05-10T06:16:55;14.32;;;12.75;;
24813;SDS011;12904;50.088;11.414;2023-05-10T06:19:21;15.23;;;13.65;;
24813;SDS011;12904;50.088;11.414;2023-05-10T06:21:47;15.48;;;12.82;;
24813;SDS011;12904;50.088;11.414;2023-05-10T06:24:12;14.93;;;13.45;;
24813;SDS011;12904;50.088;11.414;2023-05-10T06:26:38;16.77;;;13.77;;
24813;SDS011;12904;50.088;11.414;2023-05-10T06:29:03;35.97;;;14.00;;
24813;SDS011;12904;50.088;11.414;2023-05-10T06:31:29;13.88;;;12.57;;
24813;SDS011;12904;50.088;11.414;2023-05-10T06:33:55;14.77;;;13.23;;
24813;SDS011;12904;50.088;11.414;2023-05-10T06:36:22;20.77;;;14.02;;
24813;SDS011;12904;50.088;11.414;2023-05-10T06:38:49;13.48;;;12.10;;
24813;SDS011;12904;50.088;11.414;2023-05-10T06:41:16;17.08;;;11.55;;
24813;SDS011;12904;50.088;11.414;2023-05-10T06:43:41;24.27;;;12.48;;
24813;SDS011;12904;50.088;11.414;2023-05-10T06:46:08;16.65;;;11.35;;
24813;SDS011;12904;50.088;11.414;2023-05-10T06:48:33;12.13;;;11.10;;
24813;SDS011;12904;50.088;11.414;2023-05-10T06:50:59;15.73;;;11.07;;
24813;SDS011;12904;50.088;11.414;2023-05-10T06:53:25;12.93;;;10.98;;
24813;SDS011;12904;50.088;11.414;2023-05-10T06:55:50;11.77;;;10.68;;
24813;SDS011;12904;50.088;11.414;2023-05-10T06:58:16;11.55;;;10.65;;
24813;SDS011;12904;50.088;11.414;2023-05-10T07:00:42;11.25;;;10.20;;
24813;SDS011;12904;50.088;11.414;2023-05-10T07:03:09;15.80;;;10.45;;
24813;SDS011;12904;50.088;11.414;2023-05-10T07:05:35;16.77;;;11.88;;
24813;SDS011;12904;50.088;11.414;2023-05-10T07:08:01;13.32;;;11.93;;
24813;SDS011;12904;50.088;11.414;2023-05-10T07:10:26;19.67;;;12.63;;
24813;SDS011;12904;50.088;11.414;2023-05-10T07:12:52;13.32;;;12.13;;
24813;SDS011;12904;50.088;11.414;2023-05-10T07:15:18;15.68;;;12.40;;
24813;SDS011;12904;50.088;11.414;2023-05-10T07:17:43;16.45;;;12.75;;
24813;SDS011;12904;50.088;11.414;2023-05-10T07:20:10;15.70;;;12.82;;
24813;SDS011;12904;50.088;11.414;2023-05-10T07:22:36;12.30;;;11.07;;
24813;SDS011;12904;50.088;11.414;2023-05-10T07:25:01;12.15;;;11.15;;
24813;SDS011;12904;50.088;11.414;2023-05-10T07:27:27;11.55;;;10.63;;
24813;SDS011;12904;50.088;11.414;2023-05-10T07:29:53;12.38;;;10.27;;
24813;SDS011;12904;50.088;11.414;2023-05-10T07:32:19;10.48;;;9.57;;
24813;SDS011;12904;50.088;11.414;2023-05-10T07:34:45;18.60;;;10.10;;
24813;SDS011;12904;50.088;11.414;2023-05-10T07:37:11;9.65;;;8.85;;
24813;SDS011;12904;50.088;11.414;2023-05-10T07:39:37;8.60;;;8.00;;
24813;SDS011;12904;50.088;11.414;2023-05-10T07:42:02;8.75;;;8.00;;
24813;SDS011;12904;50.088;11.414;2023-05-10T07:44:28;8.02;;;6.28;;
24813;SDS011;12904;50.088;11.414;2023-05-10T07:46:54;5.93;;;5.30;;
24813;SDS011;12904;50.088;11.414;2023-05-10T07:49:20;11.40;;;5.53;;
24813;SDS011;12904;50.088;11.414;2023-05-10T07:51:49;5.97;;;5.47;;
24813;SDS011;12904;50.088;11.414;2023-05-10T07:54:15;5.45;;;5.03;;
24813;SDS011;12904;50.088;11.414;2023-05-10T07:56:40;5.63;;;5.22;;
24813;SDS011;12904;50.088;11.414;2023-05-10T07:59:14;4.63;;;4.25;;
24813;SDS011;12904;50.088;11.414;2023-05-10T08:01:41;4.72;;;4.32;;
24813;SDS011;12904;50.088;11.414;2023-05-10T08:04:06;4.55;;;4.13;;
24813;SDS011;12904;50.088;11.414;2023-05-10T08:06:32;5.03;;;4.47;;
24813;SDS011;12904;50.088;11.414;2023-05-10T08:08:58;5.55;;;5.03;;
24813;SDS011;12904;50.088;11.414;2023-05-10T08:11:23;6.13;;;5.50;;
24813;SDS011;12904;50.088;11.414;2023-05-10T08:13:49;6.78;;;6.15;;
24813;SDS011;12904;50.088;11.414;2023-05-10T08:16:16;6.65;;;5.35;;
24813;SDS011;12904;50.088;11.414;2023-05-10T08:18:42;4.78;;;4.38;;
24813;SDS011;12904;50.088;11.414;2023-05-10T08:21:10;5.35;;;4.85;;
24813;SDS011;12904;50.088;11.414;2023-05-10T08:23:36;4.97;;;4.57;;
24813;SDS011;12904;50.088;11.414;2023-05-10T08:26:02;4.82;;;4.20;;
24813;SDS011;12904;50.088;11.414;2023-05-10T08:28:28;5.40;;;3.78;;
24813;SDS011;12904;50.088;11.414;2023-05-10T08:30:53;4.32;;;3.92;;
24813;SDS011;12904;50.088;11.414;2023-05-10T08:33:19;3.90;;;3.47;;
24813;SDS011;12904;50.088;11.414;2023-05-10T08:35:45;6.28;;;3.88;;
24813;SDS011;12904;50.088;11.414;2023-05-10T08:38:10;4.28;;;3.72;;
24813;SDS011;12904;50.088;11.414;2023-05-10T08:40:37;5.45;;;3.05;;
24813;SDS011;12904;50.088;11.414;2023-05-10T08:43:05;3.08;;;2.80;;
24813;SDS011;12904;50.088;11.414;2023-05-10T08:45:33;4.00;;;3.10;;
24813;SDS011;12904;50.088;11.414;2023-05-10T08:48:04;3.65;;;3.10;;
24813;SDS011;12904;50.088;11.414;2023-05-10T08:50:34;5.82;;;3.85;;
24813;SDS011;12904;50.088;11.414;2023-05-10T08:53:04;5.45;;;4.65;;
24813;SDS011;12904;50.088;11.414;2023-05-10T08:55:34;5.65;;;4.15;;
24813;SDS011;12904;50.088;11.414;2023-05-10T08:58:05;6.57;;;5.22;;
24813;SDS011;12904;50.088;11.414;2023-05-10T09:00:32;4.28;;;3.97;;
24813;SDS011;12904;50.088;11.414;2023-05-10T09:02:59;4.20;;;3.80;;
24813;SDS011;12904;50.088;11.414;2023-05-10T09:05:27;3.05;;;2.78;;
24813;SDS011;12904;50.088;11.414;2023-05-10T09:07:54;2.13;;;2.03;;
24813;SDS011;12904;50.088;11.414;2023-05-10T09:10:21;2.00;;;1.70;;
24813;SDS011;12904;50.088;11.414;2023-05-10T09:15:18;1.67;;;1.58;;
24813;SDS011;12904;50.088;11.414;2023-05-10T09:17:44;0.98;;;0.93;;
24813;SDS011;12904;50.088;11.414;2023-05-10T09:20:11;0.80;;;0.80;;
24813;SDS011;12904;50.088;11.414;2023-05-10T09:22:37;2.47;;;0.90;;
24813;SDS011;12904;50.088;11.414;2023-05-10T09:25:09;3.05;;;0.88;;
24813;SDS011;12904;50.088;11.414;2023-05-10T09:27:38;2.25;;;0.60;;
24813;SDS011;12904;50.088;11.414;2023-05-10T09:30:05;2.67;;;0.60;;
24813;SDS011;12904;50.088;11.414;2023-05-10T09:32:38;0.60;;;0.60;;
24813;SDS011;12904;50.088;11.414;2023-05-10T09:35:14;0.60;;;0.60;;
24813;SDS011;12904;50.088;11.414;2023-05-10T09:37:42;0.50;;;0.50;;
24813;SDS011;12904;50.088;11.414;2023-05-10T09:40:28;0.50;;;0.50;;
24813;SDS011;12904;50.088;11.414;2023-05-10T09:43:01;0.40;;;0.40;;
24813;SDS011;12904;50.088;11.414;2023-05-10T09:45:34;0.40;;;0.40;;
24813;SDS011;12904;50.088;11.414;2023-05-10T09:48:01;0.45;;;0.40;;
24813;SDS011;12904;50.088;11.414;2023-05-10T09:50:27;0.60;;;0.60;;
24813;SDS011;12904;50.088;11.414;2023-05-10T09:55:40;5.78;;;0.40;;
24813;SDS011;12904;50.088;11.414;2023-05-10T09:58:11;0.70;;;0.40;;
24813;SDS011;12904;50.088;11.414;2023-05-10T10:00:38;0.40;;;0.40;;
24813;SDS011;12904;50.088;11.414;2023-05-10T10:03:05;0.90;;;0.57;;
24813;SDS011;12904;50.088;11.414;2023-05-10T10:05:39;0.68;;;0.47;;
24813;SDS011;12904;50.088;11.414;2023-05-10T10:08:06;0.60;;;0.50;;
24813;SDS011;12904;50.088;11.414;2023-05-10T10:10:32;1.08;;;0.50;;
24813;SDS011;12904;50.088;11.414;2023-05-10T10:12:59;1.15;;;0.40;;
24813;SDS011;12904;50.088;11.414;2023-05-10T10:15:25;1.02;;;0.32;;
24813;SDS011;12904;50.088;11.414;2023-05-10T10:17:51;0.65;;;0.40;;
24813;SDS011;12904;50.088;11.414;2023-05-10T10:20:18;4.47;;;0.60;;
24813;SDS011;12904;50.088;11.414;2023-05-10T10:22:45;0.73;;;0.50;;
24813;SDS011;12904;50.088;11.414;2023-05-10T10:25:11;0.65;;;0.50;;
24813;SDS011;12904;50.088;11.414;2023-05-10T10:35:22;1.45;;;0.40;;
24813;SDS011;12904;50.088;11.414;2023-05-10T10:37:49;0.50;;;0.50;;
24813;SDS011;12904;50.088;11.414;2023-05-10T10:40:22;0.60;;;0.40;;
24813;SDS011;12904;50.088;11.414;2023-05-10T10:42:54;0.30;;;0.30;;
24813;SDS011;12904;50.088;11.414;2023-05-10T10:45:21;0.63;;;0.45;;
24813;SDS011;12904;50.088;11.414;2023-05-10T10:47:48;1.17;;;0.40;;
24813;SDS011;12904;50.088;11.414;2023-05-10T10:50:14;1.90;;;0.60;;
24813;SDS011;12904;50.088;11.414;2023-05-10T10:52:43;3.15;;;0.47;;
24813;SDS011;12904;50.088;11.414;2023-05-10T10:55:13;3.20;;;0.50;;
24813;SDS011;12904;50.088;11.414;2023-05-10T10:57:48;1.15;;;0.60;;
24813;SDS011;12904;50.088;11.414;2023-05-10T11:08:07;1.38;;;0.40;;
24813;SDS011;12904;50.088;11.414;2023-05-10T11:10:34;1.35;;;0.47;;
24813;SDS011;12904;50.088;11.414;2023-05-10T11:13:00;1.38;;;0.60;;
24813;SDS011;12904;50.088;11.414;2023-05-10T11:20:51;1.08;;;0.65;;
24813;SDS011;12904;50.088;11.414;2023-05-10T11:23:20;2.28;;;0.60;;
24813;SDS011;12904;50.088;11.414;2023-05-10T11:25:47;1.52;;;0.65;;
24813;SDS011;12904;50.088;11.414;2023-05-10T11:28:13;1.58;;;0.80;;
24813;SDS011;12904;50.088;11.414;2023-05-10T11:30:39;1.20;;;0.90;;
24813;SDS011;12904;50.088;11.414;2023-05-10T11:33:08;1.15;;;0.98;;
24813;SDS011;12904;50.088;11.414;2023-05-10T11:35:38;0.93;;;0.93;;
24813;SDS011;12904;50.088;11.414;2023-05-10T11:38:05;2.00;;;1.30;;
24813;SDS011;12904;50.088;11.414;2023-05-10T11:40:32;2.10;;;1.45;;
24813;SDS011;12904;50.088;11.414;2023-05-10T11:42:57;1.90;;;1.70;;
24813;SDS011;12904;50.088;11.414;2023-05-10T11:45:24;3.33;;;1.70;;
24813;SDS011;12904;50.088;11.414;2023-05-10T11:47:51;1.92;;;1.50;;
24813;SDS011;12904;50.088;11.414;2023-05-10T11:50:17;1.70;;;1.60;;
24813;SDS011;12904;50.088;11.414;2023-05-10T11:52:43;3.72;;;1.40;;
24813;SDS011;12904;50.088;11.414;2023-05-10T11:55:08;1.33;;;1.25;;
24813;SDS011;12904;50.088;11.414;2023-05-10T11:57:34;2.13;;;1.25;;
24813;SDS011;12904;50.088;11.414;2023-05-10T12:00:00;1.58;;;1.42;;
24813;SDS011;12904;50.088;11.414;2023-05-10T12:02:28;1.00;;;1.00;;
24813;SDS011;12904;50.088;11.414;2023-05-10T12:04:55;1.45;;;1.10;;
24813;SDS011;12904;50.088;11.414;2023-05-10T12:07:20;2.72;;;1.38;;
24813;SDS011;12904;50.088;11.414;2023-05-10T12:12:51;1.00;;;1.00;;
24813;SDS011;12904;50.088;11.414;2023-05-10T12:15:21;4.03;;;0.90;;
24813;SDS011;12904;50.088;11.414;2023-05-10T12:20:21;2.05;;;0.90;;
24813;SDS011;12904;50.088;11.414;2023-05-10T12:25:18;0.77;;;0.70;;
24813;SDS011;12904;50.088;11.414;2023-05-10T12:27:55;0.80;;;0.80;;
24813;SDS011;12904;50.088;11.414;2023-05-10T12:32:51;1.35;;;0.75;;
24813;SDS011;12904;50.088;11.414;2023-05-10T12:35:17;2.08;;;0.80;;
24813;SDS011;12904;50.088;11.414;2023-05-10T12:37:46;0.85;;;0.82;;
24813;SDS011;12904;50.088;11.414;2023-05-10T12:40:13;1.73;;;0.75;;
24813;SDS011;12904;50.088;11.414;2023-05-10T12:42:39;2.35;;;0.90;;
24813;SDS011;12904;50.088;11.414;2023-05-10T12:45:05;1.25;;;0.77;;
24813;SDS011;12904;50.088;11.414;2023-05-10T12:47:32;0.93;;;0.80;;
24813;SDS011;12904;50.088;11.414;2023-05-10T12:49:58;0.70;;;0.70;;
24813;SDS011;12904;50.088;11.414;2023-05-10T12:52:25;1.33;;;0.93;;
24813;SDS011;12904;50.088;11.414;2023-05-10T12:54:51;0.80;;;0.60;;
24813;SDS011;12904;50.088;11.414;2023-05-10T12:57:17;0.90;;;0.60;;
24813;SDS011;12904;50.088;11.414;2023-05-10T12:59:43;1.17;;;1.10;;
24813;SDS011;12904;50.088;11.414;2023-05-10T13:02:09;1.73;;;0.80;;
24813;SDS011;12904;50.088;11.414;2023-05-10T13:04:35;1.80;;;0.88;;
24813;SDS011;12904;50.088;11.414;2023-05-10T13:07:04;2.15;;;0.70;;
24813;SDS011;12904;50.088;11.414;2023-05-10T13:09:30;0.93;;;0.70;;
24813;SDS011;12904;50.088;11.414;2023-05-10T13:11:56;1.05;;;0.68;;
24813;SDS011;12904;50.088;11.414;2023-05-10T13:14:22;0.88;;;0.82;;
24813;SDS011;12904;50.088;11.414;2023-05-10T13:16:47;3.67;;;0.85;;
24813;SDS011;12904;50.088;11.414;2023-05-10T13:19:13;0.80;;;0.80;;
24813;SDS011;12904;50.088;11.414;2023-05-10T13:21:39;1.00;;;0.60;;
24813;SDS011;12904;50.088;11.414;2023-05-10T13:24:06;4.05;;;0.80;;
24813;SDS011;12904;50.088;11.414;2023-05-10T13:26:32;1.23;;;0.80;;
24813;SDS011;12904;50.088;11.414;2023-05-10T13:28:58;0.80;;;0.80;;
24813;SDS011;12904;50.088;11.414;2023-05-10T13:31:23;1.23;;;0.80;;
24813;SDS011;12904;50.088;11.414;2023-05-10T13:33:49;0.80;;;0.80;;
24813;SDS011;12904;50.088;11.414;2023-05-10T13:36:15;3.10;;;0.70;;
24813;SDS011;12904;50.088;11.414;2023-05-10T13:38:40;0.82;;;0.60;;
24813;SDS011;12904;50.088;11.414;2023-05-10T13:41:06;1.90;;;0.93;;
24813;SDS011;12904;50.088;11.414;2023-05-10T13:43:32;0.95;;;0.90;;
24813;SDS011;12904;50.088;11.414;2023-05-10T13:45:57;1.58;;;0.80;;
24813;SDS011;12904;50.088;11.414;2023-05-10T13:48:23;1.88;;;0.85;;
24813;SDS011;12904;50.088;11.414;2023-05-10T13:50:49;1.05;;;0.95;;
24813;SDS011;12904;50.088;11.414;2023-05-10T13:53:14;1.08;;;0.98;;
24813;SDS011;12904;50.088;11.414;2023-05-10T13:55:40;3.33;;;0.73;;
24813;SDS011;12904;50.088;11.414;2023-05-10T13:58:06;1.05;;;1.00;;
24813;SDS011;12904;50.088;11.414;2023-05-10T14:00:32;0.30;;;0.30;;
24813;SDS011;12904;50.088;11.414;2023-05-10T14:02:57;3.15;;;2.00;;
24813;SDS011;12904;50.088;11.414;2023-05-10T14:05:23;0.88;;;0.60;;
24813;SDS011;12904;50.088;11.414;2023-05-10T14:07:49;0.60;;;0.52;;
24813;SDS011;12904;50.088;11.414;2023-05-10T14:10:15;2.78;;;0.70;;
24813;SDS011;12904;50.088;11.414;2023-05-10T14:12:41;2.72;;;0.60;;
24813;SDS011;12904;50.088;11.414;2023-05-10T14:15:07;0.60;;;0.50;;
24813;SDS011;12904;50.088;11.414;2023-05-10T14:17:35;0.75;;;0.60;;
24813;SDS011;12904;50.088;11.414;2023-05-10T14:20:01;1.20;;;0.60;;
24813;SDS011;12904;50.088;11.414;2023-05-10T14:22:27;3.13;;;0.82;;
24813;SDS011;12904;50.088;11.414;2023-05-10T14:24:52;0.77;;;0.73;;
24813;SDS011;12904;50.088;11.414;2023-05-10T14:27:18;2.15;;;1.00;;
24813;SDS011;12904;50.088;11.414;2023-05-10T14:29:44;2.17;;;0.85;;
24813;SDS011;12904;50.088;11.414;2023-05-10T14:32:10;2.15;;;1.00;;
24813;SDS011;12904;50.088;11.414;2023-05-10T14:34:35;1.20;;;1.02;;
24813;SDS011;12904;50.088;11.414;2023-05-10T14:37:01;1.38;;;0.90;;
24813;SDS011;12904;50.088;11.414;2023-05-10T14:39:27;2.30;;;0.90;;
24813;SDS011;12904;50.088;11.414;2023-05-10T14:41:55;1.52;;;0.88;;
24813;SDS011;12904;50.088;11.414;2023-05-10T14:44:20;1.40;;;1.27;;
24813;SDS011;12904;50.088;11.414;2023-05-10T14:46:46;6.25;;;4.68;;
24813;SDS011;12904;50.088;11.414;2023-05-10T14:49:13;1.15;;;1.02;;
24813;SDS011;12904;50.088;11.414;2023-05-10T14:51:39;0.90;;;0.90;;
24813;SDS011;12904;50.088;11.414;2023-05-10T14:54:04;3.00;;;1.20;;
24813;SDS011;12904;50.088;11.414;2023-05-10T14:56:31;2.45;;;0.85;;
24813;SDS011;12904;50.088;11.414;2023-05-10T14:58:56;3.72;;;1.08;;
24813;SDS011;12904;50.088;11.414;2023-05-10T15:01:22;1.05;;;1.00;;
24813;SDS011;12904;50.088;11.414;2023-05-10T15:03:48;1.95;;;1.27;;
24813;SDS011;12904;50.088;11.414;2023-05-10T15:06:14;5.68;;;2.03;;
24813;SDS011;12904;50.088;11.414;2023-05-10T15:08:42;6.53;;;1.88;;
24813;SDS011;12904;50.088;11.414;2023-05-10T15:11:08;2.58;;;1.30;;
24813;SDS011;12904;50.088;11.414;2023-05-10T15:13:34;3.55;;;2.17;;
24813;SDS011;12904;50.088;11.414;2023-05-10T15:16:00;4.63;;;2.13;;
24813;SDS011;12904;50.088;11.414;2023-05-10T15:18:26;2.33;;;1.80;;